Главная страница
METAR-TAF:

METAR-TAF

Аэропорты :

Центральный парк

Нью-Йорк, Нью-Йорк, США

широта: 40-47-00N, долгота: 073-58-00W, высота над уровнем моря: 47 м

Текущие метеонаблюдения

Эта сводка был подготовлена 31 минут назад, в 15:51 UTC
Ветер 4 Узел переменных направлений
Температура 7°C
Влажность 39%
Давление 1024 hPa
Видимость: 16.1 км
ясное небо

METAR: KNYC 151551Z AUTO VRB04KT 10SM CLR 07/M06 A3024 RMK AO2 SLP230 T00721061 $

Время: 11:22 (16:22 UTC)


TAF: отсутствует

Метеонаблюдения и прогнозы для более 4000 аэропортов (сводки METAR и TAF).

Имеющиеся станции представлены на карте желтыми и красными точками.

Чтобы увидеть название станции, наведите на нее мышь.

Затем щелкните, чтобы увидеть метеонаблюдения и метеопрогнозы.

Управление картой: чтобы увеличить масштаб, щелкните зеленые кнопки с черным крестиком; чтобы уменьшить масштаб, щелкните зеленую кнопку с тире; для просмотра соседних карт щелкайте зеленые стрелки.


METAR-TAF: